sensor_id;sensor_type;location;lat;lon;timestamp;P1;P2;P0
30713;PMS7003;17465;47.934;33.430;2023-05-10T00:01:48;14.25;14.25;9.00
30713;PMS7003;17465;47.934;33.430;2023-05-10T00:04:19;18.75;17.00;11.00
30713;PMS7003;17465;47.934;33.430;2023-05-10T00:06:49;16.50;16.25;8.75
30713;PMS7003;17465;47.934;33.430;2023-05-10T00:09:20;13.25;13.25;8.00
30713;PMS7003;17465;47.934;33.430;2023-05-10T00:11:50;15.00;14.75;11.00
30713;PMS7003;17465;47.934;33.430;2023-05-10T00:14:21;16.50;15.25;10.75
30713;PMS7003;17465;47.934;33.430;2023-05-10T00:16:51;16.50;14.50;9.50
30713;PMS7003;17465;47.934;33.430;2023-05-10T00:19:22;13.25;12.00;8.50
30713;PMS7003;17465;47.934;33.430;2023-05-10T00:21:52;15.75;15.75;9.50
30713;PMS7003;17465;47.934;33.430;2023-05-10T00:24:22;18.50;16.50;8.75
30713;PMS7003;17465;47.934;33.430;2023-05-10T00:26:53;16.50;14.25;9.75
30713;PMS7003;17465;47.934;33.430;2023-05-10T00:29:23;17.50;15.50;10.75
30713;PMS7003;17465;47.934;33.430;2023-05-10T00:31:53;15.25;14.75;8.75
30713;PMS7003;17465;47.934;33.430;2023-05-10T00:34:24;15.00;15.00;9.50
30713;PMS7003;17465;47.934;33.430;2023-05-10T00:36:54;16.25;16.25;9.25
30713;PMS7003;17465;47.934;33.430;2023-05-10T00:39:24;17.50;14.75;8.25
30713;PMS7003;17465;47.934;33.430;2023-05-10T00:41:55;15.50;12.25;8.50
30713;PMS7003;17465;47.934;33.430;2023-05-10T00:44:25;9.50;7.75;3.75
30713;PMS7003;17465;47.934;33.430;2023-05-10T00:46:56;12.25;9.75;6.25
30713;PMS7003;17465;47.934;33.430;2023-05-10T00:49:27;13.25;12.00;7.75
30713;PMS7003;17465;47.934;33.430;2023-05-10T00:51:58;15.75;14.25;9.50
30713;PMS7003;17465;47.934;33.430;2023-05-10T00:54:29;15.00;12.75;7.50
30713;PMS7003;17465;47.934;33.430;2023-05-10T00:57:00;12.75;12.75;8.25
30713;PMS7003;17465;47.934;33.430;2023-05-10T00:59:31;14.50;11.50;6.75
30713;PMS7003;17465;47.934;33.430;2023-05-10T01:02:02;14.75;13.25;9.50
30713;PMS7003;17465;47.934;33.430;2023-05-10T01:04:33;14.50;14.50;9.00
30713;PMS7003;17465;47.934;33.430;2023-05-10T01:07:04;18.00;17.50;9.25
30713;PMS7003;17465;47.934;33.430;2023-05-10T01:09:35;16.00;16.00;10.00
30713;PMS7003;17465;47.934;33.430;2023-05-10T01:12:05;17.75;16.25;10.25
30713;PMS7003;17465;47.934;33.430;2023-05-10T01:14:37;15.00;13.25;8.75
30713;PMS7003;17465;47.934;33.430;2023-05-10T01:17:08;19.00;15.75;11.00
30713;PMS7003;17465;47.934;33.430;2023-05-10T01:19:41;18.50;17.50;11.25
30713;PMS7003;17465;47.934;33.430;2023-05-10T01:39:36;15.50;13.25;10.50
30713;PMS7003;17465;47.934;33.430;2023-05-10T01:42:20;17.00;17.00;11.25
30713;PMS7003;17465;47.934;33.430;2023-05-10T02:24:36;21.50;19.75;10.50
30713;PMS7003;17465;47.934;33.430;2023-05-10T02:27:07;21.75;20.50;12.25
30713;PMS7003;17465;47.934;33.430;2023-05-10T02:29:39;23.50;23.50;15.00
30713;PMS7003;17465;47.934;33.430;2023-05-10T02:32:10;19.50;19.00;15.00
30713;PMS7003;17465;47.934;33.430;2023-05-10T02:34:41;27.00;24.75;14.25
30713;PMS7003;17465;47.934;33.430;2023-05-10T02:37:14;21.75;18.75;15.00
30713;PMS7003;17465;47.934;33.430;2023-05-10T02:39:47;24.25;22.75;15.00
30713;PMS7003;17465;47.934;33.430;2023-05-10T02:42:22;20.25;19.25;12.25
30713;PMS7003;17465;47.934;33.430;2023-05-10T02:45:01;53.50;42.50;24.75
30713;PMS7003;17465;47.934;33.430;2023-05-10T02:47:34;44.00;37.25;23.00
30713;PMS7003;17465;47.934;33.430;2023-05-10T02:50:06;55.25;45.75;26.25
30713;PMS7003;17465;47.934;33.430;2023-05-10T02:52:59;61.75;50.50;28.75
30713;PMS7003;17465;47.934;33.430;2023-05-10T02:55:16;56.75;44.75;27.25
30713;PMS7003;17465;47.934;33.430;2023-05-10T02:57:55;60.50;50.50;31.00
30713;PMS7003;17465;47.934;33.430;2023-05-10T03:00:26;61.00;51.00;30.25
30713;PMS7003;17465;47.934;33.430;2023-05-10T03:02:57;61.00;48.00;29.00
30713;PMS7003;17465;47.934;33.430;2023-05-10T03:05:29;49.50;39.50;21.50
30713;PMS7003;17465;47.934;33.430;2023-05-10T03:08:00;30.50;30.50;22.00
30713;PMS7003;17465;47.934;33.430;2023-05-10T03:10:31;29.75;26.50;18.00
30713;PMS7003;17465;47.934;33.430;2023-05-10T03:13:06;19.50;19.50;13.00
30713;PMS7003;17465;47.934;33.430;2023-05-10T03:15:59;22.75;20.00;11.25
30713;PMS7003;17465;47.934;33.430;2023-05-10T03:18:56;23.75;20.25;12.25
30713;PMS7003;17465;47.934;33.430;2023-05-10T03:21:47;18.75;17.50;11.00
30713;PMS7003;17465;47.934;33.430;2023-05-10T03:24:26;20.00;20.00;11.50
30713;PMS7003;17465;47.934;33.430;2023-05-10T03:26:52;14.50;13.50;9.50
30713;PMS7003;17465;47.934;33.430;2023-05-10T03:29:47;20.75;18.50;11.75
30713;PMS7003;17465;47.934;33.430;2023-05-10T03:32:20;18.00;14.75;10.00
30713;PMS7003;17465;47.934;33.430;2023-05-10T03:34:51;15.75;14.50;9.00
30713;PMS7003;17465;47.934;33.430;2023-05-10T03:37:23;13.50;13.50;8.00
30713;PMS7003;17465;47.934;33.430;2023-05-10T03:39:56;15.00;13.00;7.25
30713;PMS7003;17465;47.934;33.430;2023-05-10T03:42:26;13.50;13.50;9.50
30713;PMS7003;17465;47.934;33.430;2023-05-10T03:44:57;15.75;13.00;9.25
30713;PMS7003;17465;47.934;33.430;2023-05-10T03:47:27;17.50;12.75;7.25
30713;PMS7003;17465;47.934;33.430;2023-05-10T03:49:58;13.75;13.00;8.50
30713;PMS7003;17465;47.934;33.430;2023-05-10T03:52:29;14.50;14.50;10.25
30713;PMS7003;17465;47.934;33.430;2023-05-10T03:54:59;16.25;14.00;10.75
30713;PMS7003;17465;47.934;33.430;2023-05-10T03:57:30;13.75;13.75;9.75
30713;PMS7003;17465;47.934;33.430;2023-05-10T04:00:00;18.25;14.75;10.75
30713;PMS7003;17465;47.934;33.430;2023-05-10T04:02:33;5.50;4.25;1.50
30713;PMS7003;17465;47.934;33.430;2023-05-10T04:05:10;13.25;13.25;10.00
30713;PMS7003;17465;47.934;33.430;2023-05-10T04:07:41;14.00;14.00;9.75
30713;PMS7003;17465;47.934;33.430;2023-05-10T04:10:13;15.75;15.75;10.00
30713;PMS7003;17465;47.934;33.430;2023-05-10T04:12:44;19.25;17.50;12.50
30713;PMS7003;17465;47.934;33.430;2023-05-10T04:15:15;48.75;39.50;24.50
30713;PMS7003;17465;47.934;33.430;2023-05-10T04:17:46;29.00;27.00;15.50
30713;PMS7003;17465;47.934;33.430;2023-05-10T04:20:17;30.50;29.00;15.75
30713;PMS7003;17465;47.934;33.430;2023-05-10T04:22:48;13.75;11.25;6.75
30713;PMS7003;17465;47.934;33.430;2023-05-10T04:25:18;12.25;12.25;7.00
30713;PMS7003;17465;47.934;33.430;2023-05-10T04:27:48;12.25;10.75;5.50
30713;PMS7003;17465;47.934;33.430;2023-05-10T04:30:19;12.75;12.75;7.25
30713;PMS7003;17465;47.934;33.430;2023-05-10T04:32:49;12.00;12.00;8.00
30713;PMS7003;17465;47.934;33.430;2023-05-10T04:35:20;12.50;11.00;6.75
30713;PMS7003;17465;47.934;33.430;2023-05-10T04:37:50;5.50;5.50;5.00
30713;PMS7003;17465;47.934;33.430;2023-05-10T04:40:21;10.25;10.00;5.50
30713;PMS7003;17465;47.934;33.430;2023-05-10T04:42:51;10.75;10.75;6.25
30713;PMS7003;17465;47.934;33.430;2023-05-10T04:45:21;10.00;10.00;6.50
30713;PMS7003;17465;47.934;33.430;2023-05-10T04:47:52;7.00;7.00;5.00
30713;PMS7003;17465;47.934;33.430;2023-05-10T04:50:23;7.50;7.50;4.75
30713;PMS7003;17465;47.934;33.430;2023-05-10T04:52:53;10.50;8.75;5.25
30713;PMS7003;17465;47.934;33.430;2023-05-10T04:55:23;9.75;9.75;5.50
30713;PMS7003;17465;47.934;33.430;2023-05-10T04:57:54;12.75;10.75;6.75
30713;PMS7003;17465;47.934;33.430;2023-05-10T05:00:24;6.75;6.75;4.50
30713;PMS7003;17465;47.934;33.430;2023-05-10T05:02:55;6.50;6.00;3.00
30713;PMS7003;17465;47.934;33.430;2023-05-10T05:05:25;8.75;8.00;6.00
30713;PMS7003;17465;47.934;33.430;2023-05-10T05:07:56;7.25;6.25;4.50
30713;PMS7003;17465;47.934;33.430;2023-05-10T05:10:26;11.75;8.25;4.50
30713;PMS7003;17465;47.934;33.430;2023-05-10T05:12:56;8.50;7.00;4.50
30713;PMS7003;17465;47.934;33.430;2023-05-10T05:15:27;6.25;6.25;4.00
30713;PMS7003;17465;47.934;33.430;2023-05-10T05:17:57;6.50;6.50;4.25
30713;PMS7003;17465;47.934;33.430;2023-05-10T05:20:28;9.00;9.00;6.00
30713;PMS7003;17465;47.934;33.430;2023-05-10T05:23:01;7.00;7.00;4.00
30713;PMS7003;17465;47.934;33.430;2023-05-10T05:25:32;8.00;8.00;4.75
30713;PMS7003;17465;47.934;33.430;2023-05-10T05:28:03;7.00;6.75;3.75
30713;PMS7003;17465;47.934;33.430;2023-05-10T05:30:33;6.75;6.75;4.75
30713;PMS7003;17465;47.934;33.430;2023-05-10T05:33:03;7.25;7.25;4.50
30713;PMS7003;17465;47.934;33.430;2023-05-10T05:35:34;7.00;7.00;5.00
30713;PMS7003;17465;47.934;33.430;2023-05-10T05:38:04;6.75;6.75;4.50
30713;PMS7003;17465;47.934;33.430;2023-05-10T05:40:35;7.25;7.25;5.00
30713;PMS7003;17465;47.934;33.430;2023-05-10T05:43:11;8.75;8.75;5.00
30713;PMS7003;17465;47.934;33.430;2023-05-10T05:45:42;7.75;7.25;5.00
30713;PMS7003;17465;47.934;33.430;2023-05-10T05:48:12;5.50;4.50;3.25
30713;PMS7003;17465;47.934;33.430;2023-05-10T05:50:42;11.00;11.00;7.00
30713;PMS7003;17465;47.934;33.430;2023-05-10T05:53:13;6.50;6.50;3.00
30713;PMS7003;17465;47.934;33.430;2023-05-10T05:56:03;11.00;11.00;7.25
30713;PMS7003;17465;47.934;33.430;2023-05-10T05:58:25;10.00;9.75;6.25
30713;PMS7003;17465;47.934;33.430;2023-05-10T06:00:55;9.00;9.00;5.75
30713;PMS7003;17465;47.934;33.430;2023-05-10T06:03:26;13.50;13.00;6.75
30713;PMS7003;17465;47.934;33.430;2023-05-10T06:05:56;17.50;15.25;9.25
30713;PMS7003;17465;47.934;33.430;2023-05-10T06:08:27;9.25;9.25;7.75
30713;PMS7003;17465;47.934;33.430;2023-05-10T06:10:57;11.00;10.50;7.00
30713;PMS7003;17465;47.934;33.430;2023-05-10T06:13:28;9.75;9.75;6.00
30713;PMS7003;17465;47.934;33.430;2023-05-10T06:15:58;13.25;13.25;8.00
30713;PMS7003;17465;47.934;33.430;2023-05-10T06:18:29;10.00;10.00;6.25
30713;PMS7003;17465;47.934;33.430;2023-05-10T06:20:59;11.00;11.00;7.00
30713;PMS7003;17465;47.934;33.430;2023-05-10T06:23:30;11.50;11.50;8.25
30713;PMS7003;17465;47.934;33.430;2023-05-10T06:26:01;8.75;8.75;5.25
30713;PMS7003;17465;47.934;33.430;2023-05-10T06:28:31;14.00;12.50;8.00
30713;PMS7003;17465;47.934;33.430;2023-05-10T06:31:02;13.25;12.25;6.50
30713;PMS7003;17465;47.934;33.430;2023-05-10T06:33:34;14.75;14.50;10.00
30713;PMS7003;17465;47.934;33.430;2023-05-10T06:36:04;15.75;14.25;8.00
30713;PMS7003;17465;47.934;33.430;2023-05-10T06:38:35;14.00;12.50;8.50
30713;PMS7003;17465;47.934;33.430;2023-05-10T06:41:05;17.25;14.50;8.50
30713;PMS7003;17465;47.934;33.430;2023-05-10T06:43:36;14.00;11.60;5.20
30713;PMS7003;17465;47.934;33.430;2023-05-10T06:46:06;8.80;8.80;5.40
30713;PMS7003;17465;47.934;33.430;2023-05-10T06:48:37;16.40;12.60;8.80
30713;PMS7003;17465;47.934;33.430;2023-05-10T06:51:08;10.00;10.00;6.00
30713;PMS7003;17465;47.934;33.430;2023-05-10T06:53:38;9.80;9.80;6.20
30713;PMS7003;17465;47.934;33.430;2023-05-10T06:56:09;13.20;12.00;7.00
30713;PMS7003;17465;47.934;33.430;2023-05-10T06:58:39;7.60;6.60;4.40
30713;PMS7003;17465;47.934;33.430;2023-05-10T07:01:10;13.40;12.40;7.60
30713;PMS7003;17465;47.934;33.430;2023-05-10T07:03:40;8.20;8.20;5.80
30713;PMS7003;17465;47.934;33.430;2023-05-10T07:06:12;15.00;13.60;8.60
30713;PMS7003;17465;47.934;33.430;2023-05-10T07:08:47;12.80;12.80;8.00
30713;PMS7003;17465;47.934;33.430;2023-05-10T07:11:18;10.20;9.80;7.20
30713;PMS7003;17465;47.934;33.430;2023-05-10T07:13:49;11.00;11.00;6.80
30713;PMS7003;17465;47.934;33.430;2023-05-10T07:16:20;8.80;8.80;6.00
30713;PMS7003;17465;47.934;33.430;2023-05-10T07:18:50;8.80;8.80;6.60
30713;PMS7003;17465;47.934;33.430;2023-05-10T07:21:21;7.00;7.00;4.00
30713;PMS7003;17465;47.934;33.430;2023-05-10T07:23:51;5.20;5.20;3.00
30713;PMS7003;17465;47.934;33.430;2023-05-10T07:26:21;9.40;9.40;6.80
30713;PMS7003;17465;47.934;33.430;2023-05-10T07:28:52;7.00;6.80;3.80
30713;PMS7003;17465;47.934;33.430;2023-05-10T07:31:22;6.00;6.00;3.60
30713;PMS7003;17465;47.934;33.430;2023-05-10T07:33:53;7.80;7.00;4.00
30713;PMS7003;17465;47.934;33.430;2023-05-10T07:36:23;5.60;5.60;3.80
30713;PMS7003;17465;47.934;33.430;2023-05-10T07:38:54;3.00;3.00;1.60
30713;PMS7003;17465;47.934;33.430;2023-05-10T07:41:25;3.80;3.80;1.40
30713;PMS7003;17465;47.934;33.430;2023-05-10T07:43:55;6.20;6.20;3.20
30713;PMS7003;17465;47.934;33.430;2023-05-10T07:46:26;6.40;6.40;3.60
30713;PMS7003;17465;47.934;33.430;2023-05-10T07:48:58;3.40;2.60;0.20
30713;PMS7003;17465;47.934;33.430;2023-05-10T07:51:28;6.80;6.40;4.20
30713;PMS7003;17465;47.934;33.430;2023-05-10T07:53:59;4.40;4.40;3.20
30713;PMS7003;17465;47.934;33.430;2023-05-10T07:56:32;8.60;8.60;5.40
30713;PMS7003;17465;47.934;33.430;2023-05-10T07:59:04;8.80;8.80;5.60
30713;PMS7003;17465;47.934;33.430;2023-05-10T08:01:39;7.80;7.80;4.40
30713;PMS7003;17465;47.934;33.430;2023-05-10T08:04:09;11.00;9.80;6.80
30713;PMS7003;17465;47.934;33.430;2023-05-10T08:06:40;9.20;9.20;6.00
30713;PMS7003;17465;47.934;33.430;2023-05-10T08:09:11;10.40;9.60;6.00
30713;PMS7003;17465;47.934;33.430;2023-05-10T08:11:41;11.80;11.00;7.00
30713;PMS7003;17465;47.934;33.430;2023-05-10T08:14:12;12.00;12.00;8.00
30713;PMS7003;17465;47.934;33.430;2023-05-10T08:16:42;9.60;9.60;5.80
30713;PMS7003;17465;47.934;33.430;2023-05-10T08:19:13;9.75;8.50;5.75
30713;PMS7003;17465;47.934;33.430;2023-05-10T08:21:43;10.00;9.20;6.40
30713;PMS7003;17465;47.934;33.430;2023-05-10T08:24:14;11.00;11.00;8.00
30713;PMS7003;17465;47.934;33.430;2023-05-10T08:26:48;11.75;11.00;7.00
30713;PMS7003;17465;47.934;33.430;2023-05-10T08:29:19;9.25;9.25;6.00
30713;PMS7003;17465;47.934;33.430;2023-05-10T08:31:49;11.75;11.75;8.00
30713;PMS7003;17465;47.934;33.430;2023-05-10T08:34:20;12.25;11.50;6.00
30713;PMS7003;17465;47.934;33.430;2023-05-10T08:36:51;9.00;8.75;6.50
30713;PMS7003;17465;47.934;33.430;2023-05-10T08:39:21;13.75;13.75;9.00
30713;PMS7003;17465;47.934;33.430;2023-05-10T08:41:53;11.80;11.60;8.60
30713;PMS7003;17465;47.934;33.430;2023-05-10T08:44:25;10.80;10.80;8.60
30713;PMS7003;17465;47.934;33.430;2023-05-10T08:46:57;9.20;9.00;5.00
30713;PMS7003;17465;47.934;33.430;2023-05-10T08:49:49;10.20;10.20;5.60
30713;PMS7003;17465;47.934;33.430;2023-05-10T08:52:20;9.40;9.40;6.60
30713;PMS7003;17465;47.934;33.430;2023-05-10T08:54:53;5.20;5.20;2.40
30713;PMS7003;17465;47.934;33.430;2023-05-10T08:57:23;7.20;7.00;4.80
30713;PMS7003;17465;47.934;33.430;2023-05-10T08:59:58;8.00;8.00;5.00
30713;PMS7003;17465;47.934;33.430;2023-05-10T09:03:04;8.60;6.40;5.40
30713;PMS7003;17465;47.934;33.430;2023-05-10T09:05:38;6.60;6.60;4.60
30713;PMS7003;17465;47.934;33.430;2023-05-10T09:08:09;3.80;3.40;2.60
30713;PMS7003;17465;47.934;33.430;2023-05-10T09:10:40;4.60;4.60;2.20
30713;PMS7003;17465;47.934;33.430;2023-05-10T09:13:12;7.40;7.40;4.80
30713;PMS7003;17465;47.934;33.430;2023-05-10T09:15:45;6.00;5.60;2.00
30713;PMS7003;17465;47.934;33.430;2023-05-10T09:18:16;6.80;6.80;5.20
30713;PMS7003;17465;47.934;33.430;2023-05-10T09:20:48;5.40;5.40;4.00
30713;PMS7003;17465;47.934;33.430;2023-05-10T09:23:18;6.00;6.00;4.00
30713;PMS7003;17465;47.934;33.430;2023-05-10T09:26:01;5.40;4.20;3.20
30713;PMS7003;17465;47.934;33.430;2023-05-10T09:28:51;7.00;7.00;4.80
30713;PMS7003;17465;47.934;33.430;2023-05-10T09:31:45;7.60;7.60;5.40
30713;PMS7003;17465;47.934;33.430;2023-05-10T09:34:20;8.60;7.80;5.80
30713;PMS7003;17465;47.934;33.430;2023-05-10T09:37:02;11.20;10.60;7.60
30713;PMS7003;17465;47.934;33.430;2023-05-10T09:39:33;12.40;10.00;6.40
30713;PMS7003;17465;47.934;33.430;2023-05-10T09:42:05;7.00;7.00;5.00
30713;PMS7003;17465;47.934;33.430;2023-05-10T09:44:37;10.00;10.00;5.60
30713;PMS7003;17465;47.934;33.430;2023-05-10T09:47:07;12.75;10.75;7.75
30713;PMS7003;17465;47.934;33.430;2023-05-10T09:49:38;7.80;7.80;4.40
30713;PMS7003;17465;47.934;33.430;2023-05-10T09:52:08;7.00;6.50;5.00
30713;PMS7003;17465;47.934;33.430;2023-05-10T09:54:39;8.50;7.50;5.00
30713;PMS7003;17465;47.934;33.430;2023-05-10T09:57:31;8.00;7.50;4.75
30713;PMS7003;17465;47.934;33.430;2023-05-10T09:59:50;8.25;6.25;4.00
30713;PMS7003;17465;47.934;33.430;2023-05-10T10:02:21;10.00;9.00;7.00
30713;PMS7003;17465;47.934;33.430;2023-05-10T10:05:00;9.00;8.00;5.75
30713;PMS7003;17465;47.934;33.430;2023-05-10T10:07:31;10.40;10.40;6.80
30713;PMS7003;17465;47.934;33.430;2023-05-10T10:10:02;7.60;7.00;5.20
30713;PMS7003;17465;47.934;33.430;2023-05-10T10:12:33;9.00;8.00;6.80
30713;PMS7003;17465;47.934;33.430;2023-05-10T10:15:04;11.40;10.40;6.40
30713;PMS7003;17465;47.934;33.430;2023-05-10T10:17:36;10.00;10.00;8.20
30713;PMS7003;17465;47.934;33.430;2023-05-10T10:20:07;9.80;9.80;6.80
30713;PMS7003;17465;47.934;33.430;2023-05-10T10:22:40;9.00;9.00;5.60
30713;PMS7003;17465;47.934;33.430;2023-05-10T10:25:10;8.20;8.20;6.00
30713;PMS7003;17465;47.934;33.430;2023-05-10T10:27:54;8.40;8.40;5.80
30713;PMS7003;17465;47.934;33.430;2023-05-10T10:30:37;7.20;7.20;5.20
30713;PMS7003;17465;47.934;33.430;2023-05-10T10:35:54;8.60;8.60;5.00
30713;PMS7003;17465;47.934;33.430;2023-05-10T10:38:37;7.40;7.40;5.20
30713;PMS7003;17465;47.934;33.430;2023-05-10T10:41:28;7.80;7.80;6.00
30713;PMS7003;17465;47.934;33.430;2023-05-10T10:55:18;9.00;8.40;6.40
30713;PMS7003;17465;47.934;33.430;2023-05-10T10:57:50;9.00;9.00;6.40
30713;PMS7003;17465;47.934;33.430;2023-05-10T11:00:23;8.60;8.00;5.00
30713;PMS7003;17465;47.934;33.430;2023-05-10T11:02:58;13.00;10.00;7.20
30713;PMS7003;17465;47.934;33.430;2023-05-10T11:08:14;11.40;11.40;7.60
30713;PMS7003;17465;47.934;33.430;2023-05-10T11:10:50;8.80;8.80;6.00
30713;PMS7003;17465;47.934;33.430;2023-05-10T11:16:22;9.00;9.00;6.00
30713;PMS7003;17465;47.934;33.430;2023-05-10T11:18:56;12.80;11.60;6.80
30713;PMS7003;17465;47.934;33.430;2023-05-10T11:21:34;8.80;8.60;6.20
30713;PMS7003;17465;47.934;33.430;2023-05-10T11:24:15;8.60;8.60;5.60
30713;PMS7003;17465;47.934;33.430;2023-05-10T11:26:49;12.40;10.00;6.00
30713;PMS7003;17465;47.934;33.430;2023-05-10T11:29:20;6.40;6.40;3.80
30713;PMS7003;17465;47.934;33.430;2023-05-10T11:31:51;6.40;6.00;3.60
30713;PMS7003;17465;47.934;33.430;2023-05-10T11:34:25;8.20;8.20;5.40
30713;PMS7003;17465;47.934;33.430;2023-05-10T11:37:15;8.80;8.00;5.20
30713;PMS7003;17465;47.934;33.430;2023-05-10T11:39:47;8.00;8.00;6.20
30713;PMS7003;17465;47.934;33.430;2023-05-10T11:42:17;12.00;12.00;7.20
30713;PMS7003;17465;47.934;33.430;2023-05-10T11:44:48;11.20;11.20;6.60
30713;PMS7003;17465;47.934;33.430;2023-05-10T11:47:18;11.80;10.00;7.00
30713;PMS7003;17465;47.934;33.430;2023-05-10T11:49:49;10.20;8.20;6.40
30713;PMS7003;17465;47.934;33.430;2023-05-10T11:52:20;6.40;6.40;5.20
30713;PMS7003;17465;47.934;33.430;2023-05-10T11:54:51;5.80;5.80;2.80
30713;PMS7003;17465;47.934;33.430;2023-05-10T11:57:25;8.00;6.80;4.20
30713;PMS7003;17465;47.934;33.430;2023-05-10T11:59:56;10.00;10.00;6.60
30713;PMS7003;17465;47.934;33.430;2023-05-10T12:02:30;5.60;5.60;3.20
30713;PMS7003;17465;47.934;33.430;2023-05-10T12:05:01;10.00;10.00;5.40
30713;PMS7003;17465;47.934;33.430;2023-05-10T12:07:34;5.20;3.80;2.80
30713;PMS7003;17465;47.934;33.430;2023-05-10T12:10:11;7.60;7.00;4.20
30713;PMS7003;17465;47.934;33.430;2023-05-10T12:12:44;10.00;10.00;6.00
30713;PMS7003;17465;47.934;33.430;2023-05-10T12:15:30;7.00;7.00;4.60
30713;PMS7003;17465;47.934;33.430;2023-05-10T12:18:00;6.20;6.00;2.80
30713;PMS7003;17465;47.934;33.430;2023-05-10T12:20:31;8.40;8.00;6.00
30713;PMS7003;17465;47.934;33.430;2023-05-10T12:23:03;7.40;7.40;4.20
30713;PMS7003;17465;47.934;33.430;2023-05-10T12:25:35;7.80;7.80;4.60
30713;PMS7003;17465;47.934;33.430;2023-05-10T12:28:07;7.60;7.20;5.20
30713;PMS7003;17465;47.934;33.430;2023-05-10T12:30:38;8.60;8.20;6.00
30713;PMS7003;17465;47.934;33.430;2023-05-10T12:33:12;7.20;7.20;4.80
30713;PMS7003;17465;47.934;33.430;2023-05-10T12:35:48;7.40;6.00;4.80
30713;PMS7003;17465;47.934;33.430;2023-05-10T12:38:27;6.80;6.80;5.20
30713;PMS7003;17465;47.934;33.430;2023-05-10T12:41:14;7.20;7.20;4.80
30713;PMS7003;17465;47.934;33.430;2023-05-10T12:43:44;6.20;6.20;5.00
30713;PMS7003;17465;47.934;33.430;2023-05-10T12:46:16;5.80;5.60;3.40
30713;PMS7003;17465;47.934;33.430;2023-05-10T12:48:48;7.20;7.20;5.00
30713;PMS7003;17465;47.934;33.430;2023-05-10T12:51:22;7.00;6.80;4.00
30713;PMS7003;17465;47.934;33.430;2023-05-10T12:53:52;6.00;6.00;4.00
30713;PMS7003;17465;47.934;33.430;2023-05-10T12:56:30;10.00;9.00;5.40
30713;PMS7003;17465;47.934;33.430;2023-05-10T12:59:01;2.00;1.00;0.00
30713;PMS7003;17465;47.934;33.430;2023-05-10T13:01:38;7.80;6.80;4.80
30713;PMS7003;17465;47.934;33.430;2023-05-10T13:04:08;7.40;7.40;5.00
30713;PMS7003;17465;47.934;33.430;2023-05-10T13:06:38;6.80;6.80;5.20
30713;PMS7003;17465;47.934;33.430;2023-05-10T13:09:08;10.00;10.00;6.40
30713;PMS7003;17465;47.934;33.430;2023-05-10T13:11:40;11.20;11.20;6.80
30713;PMS7003;17465;47.934;33.430;2023-05-10T13:14:11;9.00;8.20;5.20
30713;PMS7003;17465;47.934;33.430;2023-05-10T13:16:43;7.80;7.00;4.80
30713;PMS7003;17465;47.934;33.430;2023-05-10T13:19:15;10.60;10.00;7.80
30713;PMS7003;17465;47.934;33.430;2023-05-10T13:21:46;8.60;8.00;5.80
30713;PMS7003;17465;47.934;33.430;2023-05-10T13:24:22;11.20;11.20;7.80
30713;PMS7003;17465;47.934;33.430;2023-05-10T13:26:53;9.60;9.00;6.60
30713;PMS7003;17465;47.934;33.430;2023-05-10T13:29:23;9.40;7.20;4.60
30713;PMS7003;17465;47.934;33.430;2023-05-10T13:31:54;5.60;5.60;4.40
30713;PMS7003;17465;47.934;33.430;2023-05-10T13:34:24;5.20;4.80;3.00
30713;PMS7003;17465;47.934;33.430;2023-05-10T13:36:55;7.00;7.00;5.00
30713;PMS7003;17465;47.934;33.430;2023-05-10T13:39:25;5.20;5.20;4.00
30713;PMS7003;17465;47.934;33.430;2023-05-10T13:41:56;5.00;5.00;3.00
30713;PMS7003;17465;47.934;33.430;2023-05-10T13:44:26;4.00;4.00;4.00
30713;PMS7003;17465;47.934;33.430;2023-05-10T13:46:56;4.00;2.60;2.00
30713;PMS7003;17465;47.934;33.430;2023-05-10T13:49:27;5.20;5.20;3.00
30713;PMS7003;17465;47.934;33.430;2023-05-10T13:51:57;6.00;5.00;2.60
30713;PMS7003;17465;47.934;33.430;2023-05-10T13:54:28;5.60;5.60;4.20
30713;PMS7003;17465;47.934;33.430;2023-05-10T13:56:58;3.80;3.80;2.40
30713;PMS7003;17465;47.934;33.430;2023-05-10T13:59:29;3.40;3.40;2.20
30713;PMS7003;17465;47.934;33.430;2023-05-10T14:02:00;7.20;5.20;4.00
30713;PMS7003;17465;47.934;33.430;2023-05-10T14:04:31;7.20;7.00;5.00
30713;PMS7003;17465;47.934;33.430;2023-05-10T14:07:01;3.00;3.00;1.20
30713;PMS7003;17465;47.934;33.430;2023-05-10T14:09:32;6.20;4.80;3.80
30713;PMS7003;17465;47.934;33.430;2023-05-10T14:12:03;4.80;4.80;2.60
30713;PMS7003;17465;47.934;33.430;2023-05-10T14:14:33;3.00;2.80;1.20
30713;PMS7003;17465;47.934;33.430;2023-05-10T14:17:04;4.80;4.80;2.60
30713;PMS7003;17465;47.934;33.430;2023-05-10T14:19:35;4.60;4.60;2.00
30713;PMS7003;17465;47.934;33.430;2023-05-10T14:22:05;6.00;6.00;3.60
30713;PMS7003;17465;47.934;33.430;2023-05-10T14:24:36;7.20;6.00;4.00
30713;PMS7003;17465;47.934;33.430;2023-05-10T14:27:07;8.20;6.00;3.60
30713;PMS7003;17465;47.934;33.430;2023-05-10T14:29:37;4.80;4.80;3.00
30713;PMS7003;17465;47.934;33.430;2023-05-10T14:32:08;7.00;7.00;3.80
30713;PMS7003;17465;47.934;33.430;2023-05-10T14:34:39;6.60;6.40;3.80
30713;PMS7003;17465;47.934;33.430;2023-05-10T14:37:13;7.00;7.00;4.40
30713;PMS7003;17465;47.934;33.430;2023-05-10T14:39:46;10.00;7.60;5.20
30713;PMS7003;17465;47.934;33.430;2023-05-10T14:42:23;6.60;6.60;3.80
30713;PMS7003;17465;47.934;33.430;2023-05-10T14:45:01;4.60;4.20;1.00
30713;PMS7003;17465;47.934;33.430;2023-05-10T14:47:31;6.00;6.00;3.80
30713;PMS7003;17465;47.934;33.430;2023-05-10T14:50:06;6.00;5.00;3.00
30713;PMS7003;17465;47.934;33.430;2023-05-10T14:52:42;6.80;5.00;3.20
30713;PMS7003;17465;47.934;33.430;2023-05-10T14:55:36;5.40;5.40;3.80
30713;PMS7003;17465;47.934;33.430;2023-05-10T14:58:05;7.20;6.40;5.00
30713;PMS7003;17465;47.934;33.430;2023-05-10T15:00:38;5.00;5.00;3.40
30713;PMS7003;17465;47.934;33.430;2023-05-10T15:03:44;6.60;6.60;4.00
30713;PMS7003;17465;47.934;33.430;2023-05-10T15:06:13;6.00;6.00;4.00
30713;PMS7003;17465;47.934;33.430;2023-05-10T15:08:50;9.75;9.75;6.00
30713;PMS7003;17465;47.934;33.430;2023-05-10T15:11:23;10.20;10.20;7.00
30713;PMS7003;17465;47.934;33.430;2023-05-10T15:13:57;7.25;7.25;5.00
30713;PMS7003;17465;47.934;33.430;2023-05-10T15:16:28;6.40;6.00;4.20
30713;PMS7003;17465;47.934;33.430;2023-05-10T15:19:00;5.75;5.75;3.50
30713;PMS7003;17465;47.934;33.430;2023-05-10T15:21:31;8.25;7.00;4.00
30713;PMS7003;17465;47.934;33.430;2023-05-10T15:24:02;7.25;6.50;4.00
30713;PMS7003;17465;47.934;33.430;2023-05-10T15:26:33;10.00;8.00;5.00
30713;PMS7003;17465;47.934;33.430;2023-05-10T15:29:03;13.00;12.00;7.00
30713;PMS7003;17465;47.934;33.430;2023-05-10T15:31:35;9.25;9.25;6.00
30713;PMS7003;17465;47.934;33.430;2023-05-10T15:34:06;11.25;11.25;7.50
30713;PMS7003;17465;47.934;33.430;2023-05-10T15:36:40;10.00;10.00;6.00
30713;PMS7003;17465;47.934;33.430;2023-05-10T15:39:11;11.50;11.50;7.00
30713;PMS7003;17465;47.934;33.430;2023-05-10T15:41:42;10.00;10.00;6.00
30713;PMS7003;17465;47.934;33.430;2023-05-10T15:44:12;11.75;8.50;4.25